If you wish to contribute or participate in the discussions about articles you are invited to join SKYbrary as a registered user

Granada

From SKYbrary Wiki
LEGR
Airport
ICAO: LEGR
Summary
Name Granada
Region Europe
Territory Spain ES.gif
Location Granada, Spain
Serving
Coordinates 37° 11' 18", -3° 46' 36"
Runways
Designator Length Width Surface ROPS
9/27 2900 m9,514.436 ft 45 m147.638 ft ASP yes/yes
METAR
Observation LEGR 241730Z 16011KT 120V180 9999 FEW050 28/10 Q1020
Station Granada / Aeropuerto
Date/Time 24 September 2017 17:30:00
Wind direction 160°
Wind speed 11 kts
Lowest cloud amount few clouds
Temperature 28°C
Dew point 10°C
Humidity 32%
QNH 1020 hPa
Weather condition n/a

WX
Tag(s) Fog

Granada Airport

ICAO: LEGR IATA: GRX

Description

International airport serving Spanish city of Granada.

Climatology

Dry-summer subtropical ”Mediterranean" climate (Köppen climate classification Csa) - characterized by hot, dry summers and mild winters. During the summer, subtropical high pressure cells dominate, making rainfall unlikely except for the occasional thunderstorm. In the winter, periodic storms bring rain (snow at higher elevations).

Maps

Terrain

Loading map...

Airport Layout

Loading map...


Accidents & Serious Incidents at or in vicinity of LEGR

None on SKYbrary